Titusville, New Jersey
Current Conditions -  °F | °C
As of 4:53 AM on Tuesday 21 Oct 2014 (Local Time) from KTTN Reporting Station
Overcast Overcast  
Wind Chill: 10°   Ceiling: 4600
Heat Index: 10°   Visibility: 10mi
Dew Point:   Wind: 3mph
Humidity: 83%   Direction: 10°N
Pressure: 29.9"   Gusts: NA
Location:  40.31°N, 74.88°W
Report Text: KTTN 210853Z AUTO 01003KT 10SM BKN046 BKN055 OVC090 10/07 A2990 RMK AO2 SLP118 T01000072 56009
Loading
Personal Weather Stations






























Interactive Weather Map
Tropical Storm Tracking
New forecast layout! Learn more

10-Day Weather Forecast

Advertisements
Track Severe Weather on mobile